Terminal Aerodrome Forecast
Issued by NWS

Home | Current Version | Previous Version | Text Only | Print | Product List | Glossary On
Versions: 1 2 3 4 5 6 7 8 9 10 11 12 13 14 15 16 17 18 19 20 21 22 23 24 25
000
FTUS46 KSEW 252100 AAA
TAFSEA
TAF AMD
KSEA 252106Z 2521/2624 VRB03KT P6SM SCT150 BKN200
     FM260800 11003KT 3SM BR SCT003
     FM261100 12003KT 1/4SM FG VV002
     FM261700 15004KT 1 1/2SM BR BKN004
     FM261900 17006KT P6SM SCT008
     FM262100 19006KT P6SM SKC=

USA.gov is the U.S. government's official web portal to all federal, state and local government web resources and services.